sensor_id;sensor_type;location;lat;lon;timestamp;temperature;humidity
3380;DHT22;1703;51.964;7.642;2024-02-21T00:02:06;9.60;99.90
3380;DHT22;1703;51.964;7.642;2024-02-21T00:04:33;9.50;99.90
3380;DHT22;1703;51.964;7.642;2024-02-21T00:07:00;9.50;99.90
3380;DHT22;1703;51.964;7.642;2024-02-21T00:09:27;9.50;99.90
3380;DHT22;1703;51.964;7.642;2024-02-21T00:11:54;9.50;99.90
3380;DHT22;1703;51.964;7.642;2024-02-21T00:14:23;9.50;99.90
3380;DHT22;1703;51.964;7.642;2024-02-21T00:16:50;9.50;99.90
3380;DHT22;1703;51.964;7.642;2024-02-21T00:19:19;9.50;99.90
3380;DHT22;1703;51.964;7.642;2024-02-21T00:21:46;9.50;99.90
3380;DHT22;1703;51.964;7.642;2024-02-21T00:24:13;9.50;99.90
3380;DHT22;1703;51.964;7.642;2024-02-21T00:26:39;9.50;99.90
3380;DHT22;1703;51.964;7.642;2024-02-21T00:29:06;9.50;99.90
3380;DHT22;1703;51.964;7.642;2024-02-21T00:31:34;9.40;99.90
3380;DHT22;1703;51.964;7.642;2024-02-21T00:34:01;9.40;99.90
3380;DHT22;1703;51.964;7.642;2024-02-21T00:36:28;9.50;99.90
3380;DHT22;1703;51.964;7.642;2024-02-21T00:38:54;9.40;99.90
3380;DHT22;1703;51.964;7.642;2024-02-21T00:41:21;9.40;99.90
3380;DHT22;1703;51.964;7.642;2024-02-21T00:43:48;9.50;99.90
3380;DHT22;1703;51.964;7.642;2024-02-21T00:46:15;9.50;99.90
3380;DHT22;1703;51.964;7.642;2024-02-21T00:48:43;9.40;99.90
3380;DHT22;1703;51.964;7.642;2024-02-21T00:51:10;9.50;99.90
3380;DHT22;1703;51.964;7.642;2024-02-21T00:53:37;9.50;99.90
3380;DHT22;1703;51.964;7.642;2024-02-21T00:56:04;9.50;99.90
3380;DHT22;1703;51.964;7.642;2024-02-21T00:58:31;9.50;99.90
3380;DHT22;1703;51.964;7.642;2024-02-21T01:00:58;9.40;99.90
3380;DHT22;1703;51.964;7.642;2024-02-21T01:03:25;9.50;99.90
3380;DHT22;1703;51.964;7.642;2024-02-21T01:05:53;9.50;99.90
3380;DHT22;1703;51.964;7.642;2024-02-21T01:08:20;9.50;99.90
3380;DHT22;1703;51.964;7.642;2024-02-21T01:10:47;9.50;99.90
3380;DHT22;1703;51.964;7.642;2024-02-21T01:13:13;9.50;99.90
3380;DHT22;1703;51.964;7.642;2024-02-21T01:15:40;9.50;99.90
3380;DHT22;1703;51.964;7.642;2024-02-21T01:18:07;9.50;99.90
3380;DHT22;1703;51.964;7.642;2024-02-21T01:20:33;9.50;99.90
3380;DHT22;1703;51.964;7.642;2024-02-21T01:23:02;9.50;99.90
3380;DHT22;1703;51.964;7.642;2024-02-21T01:25:28;9.50;99.90
3380;DHT22;1703;51.964;7.642;2024-02-21T01:27:55;9.60;99.90
3380;DHT22;1703;51.964;7.642;2024-02-21T01:30:22;9.50;99.90
3380;DHT22;1703;51.964;7.642;2024-02-21T01:32:49;9.50;99.90
3380;DHT22;1703;51.964;7.642;2024-02-21T01:35:15;9.50;99.90
3380;DHT22;1703;51.964;7.642;2024-02-21T01:37:43;9.50;99.90
3380;DHT22;1703;51.964;7.642;2024-02-21T01:40:12;9.50;99.90
3380;DHT22;1703;51.964;7.642;2024-02-21T01:42:39;9.50;99.90
3380;DHT22;1703;51.964;7.642;2024-02-21T01:45:06;9.50;99.90
3380;DHT22;1703;51.964;7.642;2024-02-21T01:47:33;9.50;99.90
3380;DHT22;1703;51.964;7.642;2024-02-21T01:50:00;9.50;99.90
3380;DHT22;1703;51.964;7.642;2024-02-21T01:52:28;9.50;99.90
3380;DHT22;1703;51.964;7.642;2024-02-21T01:54:56;9.50;99.90
3380;DHT22;1703;51.964;7.642;2024-02-21T01:57:24;9.50;99.90
3380;DHT22;1703;51.964;7.642;2024-02-21T01:59:52;9.50;99.90
3380;DHT22;1703;51.964;7.642;2024-02-21T02:02:18;9.50;99.90
3380;DHT22;1703;51.964;7.642;2024-02-21T02:04:46;9.60;99.90
3380;DHT22;1703;51.964;7.642;2024-02-21T02:07:12;9.60;99.90
3380;DHT22;1703;51.964;7.642;2024-02-21T02:09:39;9.50;99.90
3380;DHT22;1703;51.964;7.642;2024-02-21T02:12:07;9.50;99.90
3380;DHT22;1703;51.964;7.642;2024-02-21T02:14:35;9.60;99.90
3380;DHT22;1703;51.964;7.642;2024-02-21T02:17:02;9.60;99.90
3380;DHT22;1703;51.964;7.642;2024-02-21T02:19:28;9.50;99.90
3380;DHT22;1703;51.964;7.642;2024-02-21T02:22:00;9.60;99.90
3380;DHT22;1703;51.964;7.642;2024-02-21T02:24:30;9.60;99.90
3380;DHT22;1703;51.964;7.642;2024-02-21T02:26:57;9.50;99.90
3380;DHT22;1703;51.964;7.642;2024-02-21T02:29:24;9.60;99.90
3380;DHT22;1703;51.964;7.642;2024-02-21T02:31:51;9.60;99.90
3380;DHT22;1703;51.964;7.642;2024-02-21T02:34:18;9.60;99.90
3380;DHT22;1703;51.964;7.642;2024-02-21T02:36:44;9.70;99.90
3380;DHT22;1703;51.964;7.642;2024-02-21T02:39:14;9.70;99.90
3380;DHT22;1703;51.964;7.642;2024-02-21T02:41:42;9.70;99.90
3380;DHT22;1703;51.964;7.642;2024-02-21T02:44:08;9.60;99.90
3380;DHT22;1703;51.964;7.642;2024-02-21T02:46:35;9.60;99.90
3380;DHT22;1703;51.964;7.642;2024-02-21T02:49:02;9.60;99.90
3380;DHT22;1703;51.964;7.642;2024-02-21T02:51:29;9.60;99.90
3380;DHT22;1703;51.964;7.642;2024-02-21T02:53:55;9.70;99.90
3380;DHT22;1703;51.964;7.642;2024-02-21T02:56:22;9.70;99.90
3380;DHT22;1703;51.964;7.642;2024-02-21T02:58:50;9.70;99.90
3380;DHT22;1703;51.964;7.642;2024-02-21T03:01:17;9.80;99.90
3380;DHT22;1703;51.964;7.642;2024-02-21T03:03:44;9.80;99.90
3380;DHT22;1703;51.964;7.642;2024-02-21T03:06:12;9.80;99.90
3380;DHT22;1703;51.964;7.642;2024-02-21T03:08:39;9.70;99.90
3380;DHT22;1703;51.964;7.642;2024-02-21T03:11:06;9.70;99.90
3380;DHT22;1703;51.964;7.642;2024-02-21T03:13:34;9.60;99.90
3380;DHT22;1703;51.964;7.642;2024-02-21T03:16:02;9.60;99.90
3380;DHT22;1703;51.964;7.642;2024-02-21T03:18:29;9.60;99.90
3380;DHT22;1703;51.964;7.642;2024-02-21T03:20:55;9.50;99.90
3380;DHT22;1703;51.964;7.642;2024-02-21T03:23:22;9.50;99.90
3380;DHT22;1703;51.964;7.642;2024-02-21T03:25:49;9.50;99.90
3380;DHT22;1703;51.964;7.642;2024-02-21T03:28:16;9.50;99.90
3380;DHT22;1703;51.964;7.642;2024-02-21T03:30:43;9.50;99.90
3380;DHT22;1703;51.964;7.642;2024-02-21T03:33:11;9.60;99.90
3380;DHT22;1703;51.964;7.642;2024-02-21T03:35:38;9.70;99.90
3380;DHT22;1703;51.964;7.642;2024-02-21T03:38:04;9.60;99.90
3380;DHT22;1703;51.964;7.642;2024-02-21T03:40:31;9.60;99.90
3380;DHT22;1703;51.964;7.642;2024-02-21T03:42:58;9.60;99.90
3380;DHT22;1703;51.964;7.642;2024-02-21T03:45:25;9.60;99.90
3380;DHT22;1703;51.964;7.642;2024-02-21T03:47:51;9.50;99.90
3380;DHT22;1703;51.964;7.642;2024-02-21T03:50:19;9.60;99.90
3380;DHT22;1703;51.964;7.642;2024-02-21T03:52:46;9.60;99.90
3380;DHT22;1703;51.964;7.642;2024-02-21T03:55:13;9.60;99.90
3380;DHT22;1703;51.964;7.642;2024-02-21T03:57:40;9.60;99.90
3380;DHT22;1703;51.964;7.642;2024-02-21T04:00:07;9.60;99.90
3380;DHT22;1703;51.964;7.642;2024-02-21T04:02:37;9.60;99.90
3380;DHT22;1703;51.964;7.642;2024-02-21T04:05:04;9.50;99.90
3380;DHT22;1703;51.964;7.642;2024-02-21T04:07:33;9.60;99.90
3380;DHT22;1703;51.964;7.642;2024-02-21T04:09:59;9.50;99.90
3380;DHT22;1703;51.964;7.642;2024-02-21T04:12:26;9.60;99.90
3380;DHT22;1703;51.964;7.642;2024-02-21T04:14:53;9.60;99.90
3380;DHT22;1703;51.964;7.642;2024-02-21T04:17:19;9.50;99.90
3380;DHT22;1703;51.964;7.642;2024-02-21T04:19:46;9.50;99.90
3380;DHT22;1703;51.964;7.642;2024-02-21T04:22:13;9.50;99.90
3380;DHT22;1703;51.964;7.642;2024-02-21T04:24:41;9.50;99.90
3380;DHT22;1703;51.964;7.642;2024-02-21T04:27:07;9.60;99.90
3380;DHT22;1703;51.964;7.642;2024-02-21T04:29:34;9.60;99.90
3380;DHT22;1703;51.964;7.642;2024-02-21T04:32:02;9.60;99.90
3380;DHT22;1703;51.964;7.642;2024-02-21T04:34:30;9.50;99.90
3380;DHT22;1703;51.964;7.642;2024-02-21T04:36:56;9.50;99.90
3380;DHT22;1703;51.964;7.642;2024-02-21T04:39:23;9.50;99.90
3380;DHT22;1703;51.964;7.642;2024-02-21T04:41:51;9.50;99.90
3380;DHT22;1703;51.964;7.642;2024-02-21T04:44:18;9.50;99.90
3380;DHT22;1703;51.964;7.642;2024-02-21T04:46:47;9.50;99.90
3380;DHT22;1703;51.964;7.642;2024-02-21T04:49:14;9.50;99.90
3380;DHT22;1703;51.964;7.642;2024-02-21T04:51:40;9.50;99.90
3380;DHT22;1703;51.964;7.642;2024-02-21T04:54:07;9.50;99.90
3380;DHT22;1703;51.964;7.642;2024-02-21T04:56:34;9.50;99.90
3380;DHT22;1703;51.964;7.642;2024-02-21T04:59:02;9.50;99.90
3380;DHT22;1703;51.964;7.642;2024-02-21T05:01:29;9.50;99.90
3380;DHT22;1703;51.964;7.642;2024-02-21T05:03:56;9.50;99.90
3380;DHT22;1703;51.964;7.642;2024-02-21T05:06:23;9.50;99.90
3380;DHT22;1703;51.964;7.642;2024-02-21T05:08:50;9.50;99.90
3380;DHT22;1703;51.964;7.642;2024-02-21T05:11:17;9.40;99.90
3380;DHT22;1703;51.964;7.642;2024-02-21T05:13:43;9.40;99.90
3380;DHT22;1703;51.964;7.642;2024-02-21T05:16:12;9.40;99.90
3380;DHT22;1703;51.964;7.642;2024-02-21T05:18:40;9.40;99.90
3380;DHT22;1703;51.964;7.642;2024-02-21T05:21:08;9.50;99.90
3380;DHT22;1703;51.964;7.642;2024-02-21T05:23:35;9.50;99.90
3380;DHT22;1703;51.964;7.642;2024-02-21T05:26:01;9.50;99.90
3380;DHT22;1703;51.964;7.642;2024-02-21T05:28:28;9.50;99.90
3380;DHT22;1703;51.964;7.642;2024-02-21T05:30:55;9.50;99.90
3380;DHT22;1703;51.964;7.642;2024-02-21T05:33:24;9.50;99.90
3380;DHT22;1703;51.964;7.642;2024-02-21T05:35:50;9.50;99.90
3380;DHT22;1703;51.964;7.642;2024-02-21T05:38:17;9.50;99.90
3380;DHT22;1703;51.964;7.642;2024-02-21T05:40:44;9.50;99.90
3380;DHT22;1703;51.964;7.642;2024-02-21T05:43:11;9.50;99.90
3380;DHT22;1703;51.964;7.642;2024-02-21T05:45:38;9.50;99.90
3380;DHT22;1703;51.964;7.642;2024-02-21T05:48:05;9.50;99.90
3380;DHT22;1703;51.964;7.642;2024-02-21T05:50:33;9.40;99.90
3380;DHT22;1703;51.964;7.642;2024-02-21T05:53:00;9.50;99.90
3380;DHT22;1703;51.964;7.642;2024-02-21T05:55:28;9.50;99.90
3380;DHT22;1703;51.964;7.642;2024-02-21T05:57:55;9.50;99.90
3380;DHT22;1703;51.964;7.642;2024-02-21T06:00:22;9.60;99.90
3380;DHT22;1703;51.964;7.642;2024-02-21T06:02:49;9.60;99.90
3380;DHT22;1703;51.964;7.642;2024-02-21T06:05:16;9.60;99.90
3380;DHT22;1703;51.964;7.642;2024-02-21T06:07:44;9.60;99.90
3380;DHT22;1703;51.964;7.642;2024-02-21T06:10:11;9.60;99.90
3380;DHT22;1703;51.964;7.642;2024-02-21T06:12:38;9.60;99.90
3380;DHT22;1703;51.964;7.642;2024-02-21T06:15:06;9.70;99.90
3380;DHT22;1703;51.964;7.642;2024-02-21T06:17:32;9.70;99.90
3380;DHT22;1703;51.964;7.642;2024-02-21T06:19:59;9.70;99.90
3380;DHT22;1703;51.964;7.642;2024-02-21T06:22:26;9.70;99.90
3380;DHT22;1703;51.964;7.642;2024-02-21T06:24:54;9.80;99.90
3380;DHT22;1703;51.964;7.642;2024-02-21T06:27:21;9.80;99.90
3380;DHT22;1703;51.964;7.642;2024-02-21T06:29:48;9.90;99.90
3380;DHT22;1703;51.964;7.642;2024-02-21T06:32:15;9.80;99.90
3380;DHT22;1703;51.964;7.642;2024-02-21T06:34:41;9.90;99.90
3380;DHT22;1703;51.964;7.642;2024-02-21T06:37:09;9.90;99.90
3380;DHT22;1703;51.964;7.642;2024-02-21T06:39:35;9.90;99.90
3380;DHT22;1703;51.964;7.642;2024-02-21T06:42:04;9.90;99.90
3380;DHT22;1703;51.964;7.642;2024-02-21T06:44:31;9.90;99.90
3380;DHT22;1703;51.964;7.642;2024-02-21T06:47:02;10.00;99.90
3380;DHT22;1703;51.964;7.642;2024-02-21T06:49:29;10.10;99.90
3380;DHT22;1703;51.964;7.642;2024-02-21T06:51:55;10.10;99.90
3380;DHT22;1703;51.964;7.642;2024-02-21T06:54:22;10.10;99.90
3380;DHT22;1703;51.964;7.642;2024-02-21T06:56:49;10.10;99.90
3380;DHT22;1703;51.964;7.642;2024-02-21T06:59:17;10.10;99.90
3380;DHT22;1703;51.964;7.642;2024-02-21T07:01:45;10.10;99.90
3380;DHT22;1703;51.964;7.642;2024-02-21T07:04:12;10.10;99.90
3380;DHT22;1703;51.964;7.642;2024-02-21T07:06:39;10.10;99.90
3380;DHT22;1703;51.964;7.642;2024-02-21T07:09:06;10.10;99.90
3380;DHT22;1703;51.964;7.642;2024-02-21T07:11:32;10.00;99.90
3380;DHT22;1703;51.964;7.642;2024-02-21T07:13:59;10.00;99.90
3380;DHT22;1703;51.964;7.642;2024-02-21T07:16:27;10.00;99.90
3380;DHT22;1703;51.964;7.642;2024-02-21T07:18:55;10.10;99.90
3380;DHT22;1703;51.964;7.642;2024-02-21T07:21:22;10.10;99.90
3380;DHT22;1703;51.964;7.642;2024-02-21T07:23:48;10.10;99.90
3380;DHT22;1703;51.964;7.642;2024-02-21T07:26:15;10.10;99.90
3380;DHT22;1703;51.964;7.642;2024-02-21T07:28:42;10.10;99.90
3380;DHT22;1703;51.964;7.642;2024-02-21T07:31:09;10.10;99.90
3380;DHT22;1703;51.964;7.642;2024-02-21T07:33:37;10.10;99.90
3380;DHT22;1703;51.964;7.642;2024-02-21T07:36:06;10.10;99.90
3380;DHT22;1703;51.964;7.642;2024-02-21T07:38:33;10.10;99.90
3380;DHT22;1703;51.964;7.642;2024-02-21T07:41:00;10.20;99.90
3380;DHT22;1703;51.964;7.642;2024-02-21T07:43:26;10.10;99.90
3380;DHT22;1703;51.964;7.642;2024-02-21T07:45:53;10.10;99.90
3380;DHT22;1703;51.964;7.642;2024-02-21T07:48:21;10.10;99.90
3380;DHT22;1703;51.964;7.642;2024-02-21T07:50:51;10.10;99.90
3380;DHT22;1703;51.964;7.642;2024-02-21T07:53:19;10.00;99.90
3380;DHT22;1703;51.964;7.642;2024-02-21T07:55:46;9.90;99.90
3380;DHT22;1703;51.964;7.642;2024-02-21T07:58:13;10.00;99.90
3380;DHT22;1703;51.964;7.642;2024-02-21T08:00:39;10.00;99.90
3380;DHT22;1703;51.964;7.642;2024-02-21T08:03:06;10.00;99.90
3380;DHT22;1703;51.964;7.642;2024-02-21T08:05:34;10.00;99.90
3380;DHT22;1703;51.964;7.642;2024-02-21T08:08:03;10.10;99.90
3380;DHT22;1703;51.964;7.642;2024-02-21T08:10:29;10.20;99.90
3380;DHT22;1703;51.964;7.642;2024-02-21T08:12:56;10.10;99.90
3380;DHT22;1703;51.964;7.642;2024-02-21T08:15:23;10.20;99.90
3380;DHT22;1703;51.964;7.642;2024-02-21T08:17:54;10.30;99.90
3380;DHT22;1703;51.964;7.642;2024-02-21T08:20:24;10.30;99.90
3380;DHT22;1703;51.964;7.642;2024-02-21T08:22:51;10.30;99.90
3380;DHT22;1703;51.964;7.642;2024-02-21T08:25:19;10.30;99.90
3380;DHT22;1703;51.964;7.642;2024-02-21T08:27:46;10.40;99.90
3380;DHT22;1703;51.964;7.642;2024-02-21T08:30:13;10.50;99.90
3380;DHT22;1703;51.964;7.642;2024-02-21T08:32:40;10.50;99.90
3380;DHT22;1703;51.964;7.642;2024-02-21T08:35:08;10.40;99.90
3380;DHT22;1703;51.964;7.642;2024-02-21T08:37:35;10.40;99.90
3380;DHT22;1703;51.964;7.642;2024-02-21T08:40:01;10.40;99.90
3380;DHT22;1703;51.964;7.642;2024-02-21T08:42:35;10.50;99.90
3380;DHT22;1703;51.964;7.642;2024-02-21T08:45:03;10.50;99.90
3380;DHT22;1703;51.964;7.642;2024-02-21T08:47:30;10.50;99.90
3380;DHT22;1703;51.964;7.642;2024-02-21T08:49:56;10.60;99.90
3380;DHT22;1703;51.964;7.642;2024-02-21T08:52:23;10.60;99.90
3380;DHT22;1703;51.964;7.642;2024-02-21T08:54:50;10.60;99.90
3380;DHT22;1703;51.964;7.642;2024-02-21T08:57:19;10.60;99.90
3380;DHT22;1703;51.964;7.642;2024-02-21T08:59:47;10.70;99.90
3380;DHT22;1703;51.964;7.642;2024-02-21T09:02:14;10.80;99.90
3380;DHT22;1703;51.964;7.642;2024-02-21T09:04:42;10.80;99.90
3380;DHT22;1703;51.964;7.642;2024-02-21T09:07:09;10.90;99.90
3380;DHT22;1703;51.964;7.642;2024-02-21T09:09:36;10.90;99.90
3380;DHT22;1703;51.964;7.642;2024-02-21T09:12:05;11.00;99.90
3380;DHT22;1703;51.964;7.642;2024-02-21T09:14:32;11.00;99.90
3380;DHT22;1703;51.964;7.642;2024-02-21T09:17:00;11.10;99.90
3380;DHT22;1703;51.964;7.642;2024-02-21T09:19:27;11.20;99.90
3380;DHT22;1703;51.964;7.642;2024-02-21T09:21:53;11.20;99.90
3380;DHT22;1703;51.964;7.642;2024-02-21T09:24:20;11.20;99.90
3380;DHT22;1703;51.964;7.642;2024-02-21T09:26:47;11.30;99.90
3380;DHT22;1703;51.964;7.642;2024-02-21T09:29:14;11.30;99.90
3380;DHT22;1703;51.964;7.642;2024-02-21T09:31:42;11.30;99.90
3380;DHT22;1703;51.964;7.642;2024-02-21T09:34:10;11.30;99.90
3380;DHT22;1703;51.964;7.642;2024-02-21T09:36:37;11.40;99.90
3380;DHT22;1703;51.964;7.642;2024-02-21T09:39:06;11.30;99.90
3380;DHT22;1703;51.964;7.642;2024-02-21T09:41:36;11.30;99.90
3380;DHT22;1703;51.964;7.642;2024-02-21T09:44:05;11.40;99.90
3380;DHT22;1703;51.964;7.642;2024-02-21T09:46:42;11.40;99.90
3380;DHT22;1703;51.964;7.642;2024-02-21T09:49:20;11.40;99.90
3380;DHT22;1703;51.964;7.642;2024-02-21T09:51:50;11.40;99.90
3380;DHT22;1703;51.964;7.642;2024-02-21T09:54:17;11.40;99.90
3380;DHT22;1703;51.964;7.642;2024-02-21T09:56:46;11.40;99.90
3380;DHT22;1703;51.964;7.642;2024-02-21T09:59:14;11.40;99.90
3380;DHT22;1703;51.964;7.642;2024-02-21T10:01:42;11.40;99.90
3380;DHT22;1703;51.964;7.642;2024-02-21T10:04:09;11.40;99.90
3380;DHT22;1703;51.964;7.642;2024-02-21T10:06:37;11.30;99.90
3380;DHT22;1703;51.964;7.642;2024-02-21T10:09:06;11.30;99.90
3380;DHT22;1703;51.964;7.642;2024-02-21T10:11:33;11.30;99.90
3380;DHT22;1703;51.964;7.642;2024-02-21T10:14:04;11.30;99.90
3380;DHT22;1703;51.964;7.642;2024-02-21T10:16:31;11.30;99.90
3380;DHT22;1703;51.964;7.642;2024-02-21T10:18:59;11.50;99.90
3380;DHT22;1703;51.964;7.642;2024-02-21T10:21:25;11.60;99.90
3380;DHT22;1703;51.964;7.642;2024-02-21T10:23:53;11.60;99.90
3380;DHT22;1703;51.964;7.642;2024-02-21T10:26:21;11.60;99.90
3380;DHT22;1703;51.964;7.642;2024-02-21T10:28:48;11.50;99.90
3380;DHT22;1703;51.964;7.642;2024-02-21T10:31:23;11.40;99.90
3380;DHT22;1703;51.964;7.642;2024-02-21T10:33:57;11.40;99.90
3380;DHT22;1703;51.964;7.642;2024-02-21T10:36:24;11.40;99.90
3380;DHT22;1703;51.964;7.642;2024-02-21T10:38:51;11.50;99.90
3380;DHT22;1703;51.964;7.642;2024-02-21T10:41:20;11.50;99.90
3380;DHT22;1703;51.964;7.642;2024-02-21T10:43:50;11.50;99.90
3380;DHT22;1703;51.964;7.642;2024-02-21T10:46:20;11.60;99.90
3380;DHT22;1703;51.964;7.642;2024-02-21T10:48:48;11.70;99.90
3380;DHT22;1703;51.964;7.642;2024-02-21T10:51:23;11.80;99.90
3380;DHT22;1703;51.964;7.642;2024-02-21T10:54:01;11.70;99.90
3380;DHT22;1703;51.964;7.642;2024-02-21T10:56:31;11.70;99.90
3380;DHT22;1703;51.964;7.642;2024-02-21T10:59:02;11.60;99.90
3380;DHT22;1703;51.964;7.642;2024-02-21T11:01:29;11.60;99.90
3380;DHT22;1703;51.964;7.642;2024-02-21T11:03:59;11.60;99.90
3380;DHT22;1703;51.964;7.642;2024-02-21T11:06:28;11.60;99.90
3380;DHT22;1703;51.964;7.642;2024-02-21T11:09:02;11.60;99.90
3380;DHT22;1703;51.964;7.642;2024-02-21T11:11:33;11.60;99.90
3380;DHT22;1703;51.964;7.642;2024-02-21T11:14:07;11.70;99.90
3380;DHT22;1703;51.964;7.642;2024-02-21T11:16:38;11.80;99.90
3380;DHT22;1703;51.964;7.642;2024-02-21T11:19:07;11.80;99.90
3380;DHT22;1703;51.964;7.642;2024-02-21T11:21:38;11.90;99.90
3380;DHT22;1703;51.964;7.642;2024-02-21T11:24:07;11.80;99.90
3380;DHT22;1703;51.964;7.642;2024-02-21T11:26:37;11.80;99.90
3380;DHT22;1703;51.964;7.642;2024-02-21T11:29:04;11.70;99.90
3380;DHT22;1703;51.964;7.642;2024-02-21T11:31:40;11.70;99.90
3380;DHT22;1703;51.964;7.642;2024-02-21T11:34:11;11.70;99.90
3380;DHT22;1703;51.964;7.642;2024-02-21T11:36:47;11.60;99.90
3380;DHT22;1703;51.964;7.642;2024-02-21T11:39:21;11.60;99.90
3380;DHT22;1703;51.964;7.642;2024-02-21T11:42:01;11.50;99.90
3380;DHT22;1703;51.964;7.642;2024-02-21T11:44:27;11.40;99.90
3380;DHT22;1703;51.964;7.642;2024-02-21T11:46:54;11.40;99.90
3380;DHT22;1703;51.964;7.642;2024-02-21T11:49:21;11.40;99.90
3380;DHT22;1703;51.964;7.642;2024-02-21T11:51:48;11.40;99.90
3380;DHT22;1703;51.964;7.642;2024-02-21T11:54:15;11.30;99.90
3380;DHT22;1703;51.964;7.642;2024-02-21T11:56:42;11.40;99.90
3380;DHT22;1703;51.964;7.642;2024-02-21T11:59:10;11.40;99.90
3380;DHT22;1703;51.964;7.642;2024-02-21T12:01:37;11.40;99.90
3380;DHT22;1703;51.964;7.642;2024-02-21T12:04:04;11.50;99.90
3380;DHT22;1703;51.964;7.642;2024-02-21T12:06:32;11.50;99.90
3380;DHT22;1703;51.964;7.642;2024-02-21T12:08:59;11.50;99.90
3380;DHT22;1703;51.964;7.642;2024-02-21T12:11:27;11.50;99.90
3380;DHT22;1703;51.964;7.642;2024-02-21T12:14:00;11.50;99.90
3380;DHT22;1703;51.964;7.642;2024-02-21T12:16:30;11.50;99.90
3380;DHT22;1703;51.964;7.642;2024-02-21T12:18:57;11.50;99.90
3380;DHT22;1703;51.964;7.642;2024-02-21T12:21:24;11.50;99.90
3380;DHT22;1703;51.964;7.642;2024-02-21T12:23:53;11.50;99.90
3380;DHT22;1703;51.964;7.642;2024-02-21T12:26:20;11.50;99.90
3380;DHT22;1703;51.964;7.642;2024-02-21T12:28:47;11.50;99.90
3380;DHT22;1703;51.964;7.642;2024-02-21T12:31:14;11.50;99.90
3380;DHT22;1703;51.964;7.642;2024-02-21T12:33:43;11.50;99.90
3380;DHT22;1703;51.964;7.642;2024-02-21T12:36:10;11.60;99.90
3380;DHT22;1703;51.964;7.642;2024-02-21T12:38:37;11.60;99.90
3380;DHT22;1703;51.964;7.642;2024-02-21T12:41:04;11.60;99.90
3380;DHT22;1703;51.964;7.642;2024-02-21T12:43:30;11.70;99.90
3380;DHT22;1703;51.964;7.642;2024-02-21T12:45:57;11.70;99.90
3380;DHT22;1703;51.964;7.642;2024-02-21T12:48:24;11.70;99.90
3380;DHT22;1703;51.964;7.642;2024-02-21T12:50:52;11.70;99.90
3380;DHT22;1703;51.964;7.642;2024-02-21T12:53:19;11.80;99.90
3380;DHT22;1703;51.964;7.642;2024-02-21T12:55:48;11.80;99.90
3380;DHT22;1703;51.964;7.642;2024-02-21T12:58:15;11.90;99.90
3380;DHT22;1703;51.964;7.642;2024-02-21T13:00:42;11.90;99.90
3380;DHT22;1703;51.964;7.642;2024-02-21T13:03:10;12.00;99.90
3380;DHT22;1703;51.964;7.642;2024-02-21T13:05:37;12.00;99.90
3380;DHT22;1703;51.964;7.642;2024-02-21T13:08:06;11.90;99.90
3380;DHT22;1703;51.964;7.642;2024-02-21T13:10:33;11.90;99.90
3380;DHT22;1703;51.964;7.642;2024-02-21T13:13:00;12.00;99.90
3380;DHT22;1703;51.964;7.642;2024-02-21T13:15:27;12.00;99.90
3380;DHT22;1703;51.964;7.642;2024-02-21T13:17:55;11.90;99.90
3380;DHT22;1703;51.964;7.642;2024-02-21T13:20:22;11.90;99.90
3380;DHT22;1703;51.964;7.642;2024-02-21T13:22:49;11.80;99.90
3380;DHT22;1703;51.964;7.642;2024-02-21T13:25:17;11.90;99.90
3380;DHT22;1703;51.964;7.642;2024-02-21T13:27:46;11.90;99.90
3380;DHT22;1703;51.964;7.642;2024-02-21T13:30:13;12.00;99.90
3380;DHT22;1703;51.964;7.642;2024-02-21T13:32:41;12.00;99.90
3380;DHT22;1703;51.964;7.642;2024-02-21T13:35:09;12.00;99.90
3380;DHT22;1703;51.964;7.642;2024-02-21T13:37:37;12.00;99.90
3380;DHT22;1703;51.964;7.642;2024-02-21T13:40:05;12.10;99.90
3380;DHT22;1703;51.964;7.642;2024-02-21T13:42:36;12.20;99.90
3380;DHT22;1703;51.964;7.642;2024-02-21T13:45:04;12.20;99.90
3380;DHT22;1703;51.964;7.642;2024-02-21T13:47:31;12.20;99.90
3380;DHT22;1703;51.964;7.642;2024-02-21T13:49:58;12.20;99.90
3380;DHT22;1703;51.964;7.642;2024-02-21T13:52:25;12.30;99.90
3380;DHT22;1703;51.964;7.642;2024-02-21T13:54:52;12.30;99.90
3380;DHT22;1703;51.964;7.642;2024-02-21T13:57:19;12.30;99.90
3380;DHT22;1703;51.964;7.642;2024-02-21T13:59:47;12.40;99.90
3380;DHT22;1703;51.964;7.642;2024-02-21T14:02:14;12.40;99.90
3380;DHT22;1703;51.964;7.642;2024-02-21T14:04:41;12.50;99.90
3380;DHT22;1703;51.964;7.642;2024-02-21T14:07:08;12.40;99.90
3380;DHT22;1703;51.964;7.642;2024-02-21T14:09:35;12.40;99.90
3380;DHT22;1703;51.964;7.642;2024-02-21T14:12:02;12.40;99.90
3380;DHT22;1703;51.964;7.642;2024-02-21T14:14:29;12.30;99.90
3380;DHT22;1703;51.964;7.642;2024-02-21T14:16:57;12.30;99.90
3380;DHT22;1703;51.964;7.642;2024-02-21T14:19:24;12.30;99.90
3380;DHT22;1703;51.964;7.642;2024-02-21T14:21:51;12.20;99.90
3380;DHT22;1703;51.964;7.642;2024-02-21T14:24:18;12.30;99.90
3380;DHT22;1703;51.964;7.642;2024-02-21T14:26:45;12.20;99.90
3380;DHT22;1703;51.964;7.642;2024-02-21T14:29:12;12.00;99.90
3380;DHT22;1703;51.964;7.642;2024-02-21T14:31:39;12.10;99.90
3380;DHT22;1703;51.964;7.642;2024-02-21T14:34:07;12.10;99.90
3380;DHT22;1703;51.964;7.642;2024-02-21T14:36:34;12.20;99.90
3380;DHT22;1703;51.964;7.642;2024-02-21T14:39:01;12.10;99.90
3380;DHT22;1703;51.964;7.642;2024-02-21T14:41:28;12.00;99.90
3380;DHT22;1703;51.964;7.642;2024-02-21T14:43:55;12.00;99.90
3380;DHT22;1703;51.964;7.642;2024-02-21T14:46:25;12.00;99.90
3380;DHT22;1703;51.964;7.642;2024-02-21T14:48:53;12.00;99.90
3380;DHT22;1703;51.964;7.642;2024-02-21T14:51:22;12.00;99.90
3380;DHT22;1703;51.964;7.642;2024-02-21T14:53:49;12.00;99.90
3380;DHT22;1703;51.964;7.642;2024-02-21T14:56:16;12.00;99.90
3380;DHT22;1703;51.964;7.642;2024-02-21T14:58:43;12.00;99.90
3380;DHT22;1703;51.964;7.642;2024-02-21T15:01:10;11.90;99.90
3380;DHT22;1703;51.964;7.642;2024-02-21T15:03:38;11.90;99.90
3380;DHT22;1703;51.964;7.642;2024-02-21T15:06:05;11.90;99.90
3380;DHT22;1703;51.964;7.642;2024-02-21T15:08:33;11.90;99.90
3380;DHT22;1703;51.964;7.642;2024-02-21T15:11:01;11.90;99.90
3380;DHT22;1703;51.964;7.642;2024-02-21T15:13:28;11.90;99.90
3380;DHT22;1703;51.964;7.642;2024-02-21T15:15:56;11.80;99.90
3380;DHT22;1703;51.964;7.642;2024-02-21T15:18:22;11.80;99.90
3380;DHT22;1703;51.964;7.642;2024-02-21T15:20:49;11.70;99.90
3380;DHT22;1703;51.964;7.642;2024-02-21T15:23:16;11.70;99.90
3380;DHT22;1703;51.964;7.642;2024-02-21T15:25:44;11.70;99.90
3380;DHT22;1703;51.964;7.642;2024-02-21T15:28:11;11.70;99.90
3380;DHT22;1703;51.964;7.642;2024-02-21T15:30:38;11.70;99.90
3380;DHT22;1703;51.964;7.642;2024-02-21T15:33:05;11.70;99.90
3380;DHT22;1703;51.964;7.642;2024-02-21T15:35:32;11.70;99.90
3380;DHT22;1703;51.964;7.642;2024-02-21T15:37:59;11.70;99.90
3380;DHT22;1703;51.964;7.642;2024-02-21T15:40:26;11.70;99.90
3380;DHT22;1703;51.964;7.642;2024-02-21T15:42:54;11.70;99.90
3380;DHT22;1703;51.964;7.642;2024-02-21T15:45:21;11.70;99.90
3380;DHT22;1703;51.964;7.642;2024-02-21T15:47:48;11.70;99.90
3380;DHT22;1703;51.964;7.642;2024-02-21T15:50:16;11.60;99.90
3380;DHT22;1703;51.964;7.642;2024-02-21T15:52:43;11.60;99.90
3380;DHT22;1703;51.964;7.642;2024-02-21T15:55:09;11.60;99.90
3380;DHT22;1703;51.964;7.642;2024-02-21T15:57:37;11.60;99.90
3380;DHT22;1703;51.964;7.642;2024-02-21T16:00:07;11.60;99.90
3380;DHT22;1703;51.964;7.642;2024-02-21T16:02:41;11.60;99.90
3380;DHT22;1703;51.964;7.642;2024-02-21T16:05:08;11.60;99.90
3380;DHT22;1703;51.964;7.642;2024-02-21T16:07:36;11.60;99.90
3380;DHT22;1703;51.964;7.642;2024-02-21T16:10:04;11.70;99.90
3380;DHT22;1703;51.964;7.642;2024-02-21T16:12:32;11.70;99.90